North Adams, Massachusetts
Current Conditions -  °F | °C
As of 9:52 PM on Thursday 18 Dec 2014 (Local Time) from KAQW Reporting Station
Overcast Overcast  
Wind Chill: -7°   Ceiling: 2000
Heat Index: -1°   Visibility: 10mi
Dew Point: -4°   Wind: 15mph
Humidity: 79%   Direction: 260°W
Pressure: 29.88"   Gusts: NA
Location:  42.7°N, 73.11°W
Report Text: KAQW 190252Z AUTO 26013KT 10SM BKN020 OVC028 M01/M04 A2988 RMK AO2 SLP127 T10061039 58006
Loading
Personal Weather Stations






























Interactive Weather Map New forecast layout! Learn more

10-Day Weather Forecast

Advertisements
Track Severe Weather on mobile